Time;durP1;ratioP1;P1;durP2;ratioP2;P2;SDS_P1;SDS_P2;PMS_P1;PMS_P2;Temp;Humidity;BMP_temperature;BMP_pressure;BME280_temperature;BME280_humidity;BME280_pressure;Samples;Min_cycle;Max_cycle;Signal;HPM_P1;HPM_P2
2024/01/15 00:02:58;;;;;;;34.27;15.50;;;;;;;;;;10159248;29;20067;-80
2024/01/15 00:08:00;;;;;;;34.73;14.97;;;;;;;;;;10160782;29;20043;-79
2024/01/15 00:13:01;;;;;;;30.40;15.17;;;;;;;;;;10166269;29;20024;-79
2024/01/15 00:18:08;;;;;;;29.30;12.73;;;;;;;;;;10160656;29;20032;-79
2024/01/15 00:23:09;;;;;;;26.30;11.93;;;;;;;;;;10166164;29;20044;-82
2024/01/15 00:28:10;;;;;;;24.03;11.47;;;;;;;;;;10150760;29;20481;-79
2024/01/15 00:33:12;;;;;;;25.30;12.23;;;;;;;;;;10160190;29;20038;-79
2024/01/15 00:38:13;;;;;;;26.53;11.73;;;;;;;;;;10160881;29;20373;-85
2024/01/15 00:43:14;;;;;;;24.90;12.23;;;;;;;;;;10164782;29;20048;-79
2024/01/15 00:48:15;;;;;;;28.37;12.70;;;;;;;;;;10163007;29;20585;-83
2024/01/15 00:53:16;;;;;;;23.03;10.63;;;;;;;;;;10164660;29;20066;-81
2024/01/15 00:58:17;;;;;;;23.70;10.90;;;;;;;;;;10132477;29;20036;-79
2024/01/15 01:03:18;;;;;;;25.20;11.93;;;;;;;;;;10146448;29;20147;-80
2024/01/15 01:08:19;;;;;;;25.00;11.70;;;;;;;;;;10144718;29;20131;-80
2024/01/15 01:13:20;;;;;;;23.40;11.33;;;;;;;;;;10157092;29;20123;-80
2024/01/15 01:18:21;;;;;;;28.07;11.10;;;;;;;;;;10163629;29;20063;-82
2024/01/15 01:23:29;;;;;;;21.90;10.03;;;;;;;;;;10156816;29;20484;-80
2024/01/15 01:28:30;;;;;;;24.17;10.73;;;;;;;;;;10151260;29;20043;-81
2024/01/15 01:33:31;;;;;;;22.47;10.83;;;;;;;;;;10173029;29;20039;-83
2024/01/15 01:38:32;;;;;;;24.33;11.27;;;;;;;;;;10176509;29;20039;-81
2024/01/15 01:43:33;;;;;;;20.67;9.77;;;;;;;;;;10174384;29;20051;-80
2024/01/15 01:48:34;;;;;;;19.63;10.30;;;;;;;;;;10176172;29;20090;-80
2024/01/15 01:53:37;;;;;;;22.30;9.67;;;;;;;;;;10162543;29;20070;-85
2024/01/15 01:58:38;;;;;;;17.20;8.40;;;;;;;;;;10152387;29;20088;-79
2024/01/15 02:03:40;;;;;;;20.33;9.60;;;;;;;;;;10173983;29;20506;-80
2024/01/15 02:08:44;;;;;;;19.00;8.67;;;;;;;;;;10162354;29;20043;-80
2024/01/15 02:13:45;;;;;;;17.37;8.13;;;;;;;;;;10147641;29;20043;-81
2024/01/15 02:18:46;;;;;;;16.37;8.27;;;;;;;;;;10153795;29;20035;-80
2024/01/15 02:23:47;;;;;;;20.93;8.70;;;;;;;;;;10171172;29;20045;-82
2024/01/15 02:28:49;;;;;;;16.40;7.70;;;;;;;;;;10168174;29;20039;-81
2024/01/15 02:33:50;;;;;;;16.47;6.93;;;;;;;;;;10171303;29;20032;-79
2024/01/15 02:38:51;;;;;;;14.20;7.27;;;;;;;;;;10155662;29;20028;-79
2024/01/15 02:43:52;;;;;;;16.53;7.63;;;;;;;;;;10150144;29;20263;-79
2024/01/15 02:48:53;;;;;;;16.97;7.47;;;;;;;;;;10167465;29;20801;-84
2024/01/15 02:53:54;;;;;;;17.43;7.03;;;;;;;;;;10147353;29;20060;-82
2024/01/15 02:58:55;;;;;;;14.90;6.57;;;;;;;;;;10132789;29;20029;-79
2024/01/15 03:03:57;;;;;;;14.63;7.63;;;;;;;;;;10114579;23;20071;-84
2024/01/15 03:08:58;;;;;;;13.03;6.37;;;;;;;;;;10118508;29;20049;-80
2024/01/15 03:13:59;;;;;;;12.50;6.20;;;;;;;;;;10118948;29;20049;-81
2024/01/15 03:19:00;;;;;;;15.37;7.17;;;;;;;;;;10119409;29;20176;-79
2024/01/15 03:24:01;;;;;;;17.40;7.60;;;;;;;;;;10129269;29;20095;-81
2024/01/15 03:29:02;;;;;;;15.17;6.70;;;;;;;;;;10128484;29;20059;-79
2024/01/15 03:34:03;;;;;;;15.63;6.57;;;;;;;;;;10126328;29;20107;-81
2024/01/15 03:39:04;;;;;;;15.53;6.43;;;;;;;;;;10088898;29;20136;-83
2024/01/15 03:44:05;;;;;;;13.53;6.80;;;;;;;;;;10089524;29;20497;-79
2024/01/15 03:49:06;;;;;;;15.83;7.10;;;;;;;;;;10067890;29;20046;-84
2024/01/15 03:54:07;;;;;;;12.97;6.53;;;;;;;;;;10086400;29;20044;-79
2024/01/15 03:59:09;;;;;;;14.63;7.47;;;;;;;;;;10089288;29;20402;-79
2024/01/15 04:04:10;;;;;;;13.90;7.27;;;;;;;;;;10085474;29;20067;-80
2024/01/15 04:09:12;;;;;;;16.87;7.57;;;;;;;;;;10087661;29;20405;-78
2024/01/15 04:14:13;;;;;;;15.50;7.43;;;;;;;;;;10084030;29;20528;-79
2024/01/15 04:19:14;;;;;;;14.93;6.87;;;;;;;;;;10077540;29;20037;-79
2024/01/15 04:24:17;;;;;;;13.97;7.23;;;;;;;;;;10088344;29;20045;-82
2024/01/15 04:29:18;;;;;;;18.83;7.77;;;;;;;;;;10086994;29;20040;-82
2024/01/15 04:34:19;;;;;;;19.43;7.83;;;;;;;;;;10085824;29;20044;-80
2024/01/15 04:39:20;;;;;;;16.73;8.07;;;;;;;;;;10086748;29;20037;-84
2024/01/15 04:44:21;;;;;;;17.90;7.93;;;;;;;;;;10086729;29;20044;-83
2024/01/15 04:49:22;;;;;;;16.73;7.57;;;;;;;;;;10086166;29;20069;-80
2024/01/15 04:54:23;;;;;;;15.67;8.10;;;;;;;;;;10081101;29;20901;-78
2024/01/15 04:59:24;;;;;;;15.63;7.17;;;;;;;;;;10082154;29;20029;-82
2024/01/15 05:04:25;;;;;;;18.57;8.13;;;;;;;;;;10074740;29;20069;-80
2024/01/15 05:09:27;;;;;;;23.37;8.73;;;;;;;;;;10085538;29;20385;-79
2024/01/15 05:14:28;;;;;;;17.80;7.60;;;;;;;;;;10068880;29;20479;-79
2024/01/15 05:19:29;;;;;;;22.50;9.30;;;;;;;;;;10059348;29;20034;-82
2024/01/15 05:24:30;;;;;;;14.87;7.83;;;;;;;;;;10079423;29;20049;-79
2024/01/15 05:29:37;;;;;;;21.17;9.10;;;;;;;;;;10086015;29;20478;-80
2024/01/15 05:34:38;;;;;;;19.23;9.00;;;;;;;;;;10085685;29;20120;-82
2024/01/15 05:39:39;;;;;;;18.97;7.67;;;;;;;;;;10084539;29;20041;-79
2024/01/15 05:44:40;;;;;;;18.23;8.83;;;;;;;;;;10086343;29;20049;-84
2024/01/15 05:49:41;;;;;;;17.17;8.63;;;;;;;;;;10084805;29;20474;-83
2024/01/15 05:54:42;;;;;;;17.80;8.87;;;;;;;;;;10086628;29;20132;-80
2024/01/15 05:59:43;;;;;;;19.57;8.43;;;;;;;;;;10084215;29;20097;-79
2024/01/15 06:04:44;;;;;;;16.60;8.00;;;;;;;;;;10082808;29;20434;-80
2024/01/15 06:09:45;;;;;;;14.80;8.20;;;;;;;;;;10084437;29;20079;-79
2024/01/15 06:14:47;;;;;;;22.87;9.33;;;;;;;;;;10086947;29;20037;-81
2024/01/15 06:19:48;;;;;;;25.97;11.30;;;;;;;;;;10091813;29;20033;-81
2024/01/15 06:24:49;;;;;;;21.47;10.13;;;;;;;;;;10091022;29;20173;-80
2024/01/15 06:29:50;;;;;;;24.17;12.03;;;;;;;;;;10091958;29;20041;-79
2024/01/15 06:34:51;;;;;;;23.43;11.40;;;;;;;;;;10090538;29;20458;-79
2024/01/15 06:39:52;;;;;;;25.77;10.50;;;;;;;;;;10080649;29;20151;-79
2024/01/15 06:44:53;;;;;;;24.10;10.53;;;;;;;;;;10081109;29;20509;-79
2024/01/15 06:49:54;;;;;;;20.43;9.77;;;;;;;;;;10092028;29;20063;-81
2024/01/15 06:54:55;;;;;;;22.40;11.37;;;;;;;;;;10073109;29;20052;-80
2024/01/15 06:59:56;;;;;;;31.47;12.70;;;;;;;;;;10090699;29;20089;-83
2024/01/15 07:04:57;;;;;;;24.80;11.63;;;;;;;;;;10070285;29;20574;-79
2024/01/15 07:09:58;;;;;;;27.13;12.57;;;;;;;;;;10076623;29;20139;-80
2024/01/15 07:14:59;;;;;;;23.30;10.90;;;;;;;;;;10080513;29;20041;-80
2024/01/15 07:20:00;;;;;;;27.30;11.40;;;;;;;;;;10108533;29;20056;-82
2024/01/15 07:25:08;;;;;;;23.53;10.87;;;;;;;;;;10113784;29;20037;-79
2024/01/15 07:30:09;;;;;;;22.03;9.67;;;;;;;;;;10086352;29;20044;-79
2024/01/15 07:35:10;;;;;;;22.73;11.63;;;;;;;;;;10083270;29;20043;-79
2024/01/15 07:40:12;;;;;;;27.57;11.43;;;;;;;;;;10089247;29;20047;-80
2024/01/15 07:45:13;;;;;;;28.33;10.93;;;;;;;;;;10090924;29;20063;-79
2024/01/15 07:50:20;;;;;;;26.67;12.43;;;;;;;;;;10085811;29;20032;-80
2024/01/15 07:55:21;;;;;;;28.83;14.40;;;;;;;;;;10088654;29;20569;-79
2024/01/15 08:00:29;;;;;;;30.80;13.80;;;;;;;;;;10078045;29;20409;-80
2024/01/15 08:05:31;;;;;;;36.17;15.53;;;;;;;;;;10083420;29;20459;-80
2024/01/15 08:10:32;;;;;;;25.47;12.93;;;;;;;;;;10068456;29;20030;-79
2024/01/15 08:15:33;;;;;;;30.60;13.10;;;;;;;;;;10092065;29;20033;-81
2024/01/15 08:20:34;;;;;;;28.77;12.67;;;;;;;;;;10082036;29;20045;-84
2024/01/15 08:25:36;;;;;;;26.07;13.20;;;;;;;;;;10094468;29;20059;-80
2024/01/15 08:30:37;;;;;;;23.50;11.70;;;;;;;;;;10068126;29;20606;-79
2024/01/15 08:35:38;;;;;;;30.23;13.53;;;;;;;;;;10084446;29;20052;-79
2024/01/15 08:40:39;;;;;;;33.50;14.87;;;;;;;;;;10095755;29;20044;-81
2024/01/15 08:45:40;;;;;;;24.10;11.73;;;;;;;;;;10079009;29;20048;-80
2024/01/15 08:50:41;;;;;;;26.00;13.00;;;;;;;;;;10076055;29;20077;-80
2024/01/15 08:55:42;;;;;;;25.30;11.80;;;;;;;;;;10080704;29;20486;-80
2024/01/15 09:00:43;;;;;;;21.90;8.93;;;;;;;;;;10065118;29;20042;-80
2024/01/15 09:05:44;;;;;;;30.37;12.73;;;;;;;;;;10073595;29;20056;-81
2024/01/15 09:10:45;;;;;;;23.97;11.40;;;;;;;;;;10070855;29;20062;-84
2024/01/15 09:15:46;;;;;;;30.23;13.30;;;;;;;;;;10080718;29;20026;-80
2024/01/15 09:20:48;;;;;;;30.20;11.30;;;;;;;;;;10079084;29;20152;-84
2024/01/15 09:25:49;;;;;;;26.00;11.30;;;;;;;;;;10083938;29;20504;-80
2024/01/15 09:30:50;;;;;;;20.03;10.50;;;;;;;;;;10074792;29;20029;-80
2024/01/15 09:35:51;;;;;;;19.63;9.03;;;;;;;;;;10079915;29;20018;-80
2024/01/15 09:40:52;;;;;;;28.37;12.73;;;;;;;;;;10067520;29;20037;-80
2024/01/15 09:45:54;;;;;;;31.80;14.70;;;;;;;;;;10079825;29;20080;-80
2024/01/15 09:50:55;;;;;;;25.70;11.60;;;;;;;;;;10079985;29;20467;-80
2024/01/15 09:55:56;;;;;;;24.53;11.73;;;;;;;;;;10086059;29;20525;-81
2024/01/15 10:00:57;;;;;;;25.27;12.33;;;;;;;;;;10049161;29;20109;-81
2024/01/15 10:06:00;;;;;;;32.03;13.87;;;;;;;;;;10077280;24;20049;-82
2024/01/15 10:11:01;;;;;;;27.40;13.70;;;;;;;;;;10079728;29;20112;-81
2024/01/15 10:16:03;;;;;;;23.53;11.63;;;;;;;;;;10103042;29;20039;-83
2024/01/15 10:21:04;;;;;;;26.93;13.23;;;;;;;;;;10108424;29;20147;-81
2024/01/15 10:26:05;;;;;;;28.27;12.40;;;;;;;;;;10114412;29;20518;-82
2024/01/15 10:31:06;;;;;;;25.80;11.57;;;;;;;;;;10129990;23;20091;-81
2024/01/15 10:36:11;;;;;;;35.70;15.83;;;;;;;;;;10121442;29;20041;-81
2024/01/15 10:41:12;;;;;;;32.33;15.10;;;;;;;;;;10120954;29;20762;-85
2024/01/15 10:46:20;;;;;;;28.33;13.67;;;;;;;;;;10106477;29;20040;-81
2024/01/15 10:51:21;;;;;;;31.57;13.63;;;;;;;;;;10123188;29;20481;-79
2024/01/15 10:56:23;;;;;;;34.20;17.03;;;;;;;;;;10115186;29;20481;-78
2024/01/15 11:01:24;;;;;;;28.93;12.93;;;;;;;;;;10113533;29;20169;-79
2024/01/15 11:06:25;;;;;;;28.37;13.17;;;;;;;;;;10118523;29;20085;-79
2024/01/15 11:11:26;;;;;;;27.23;12.33;;;;;;;;;;10123477;29;20036;-80
2024/01/15 11:16:47;;;;;;;22.97;12.13;;;;;;;;;;10107220;29;20032;-81
2024/01/15 11:21:48;;;;;;;24.23;11.00;;;;;;;;;;10119716;29;20231;-79
2024/01/15 11:26:50;;;;;;;29.20;13.90;;;;;;;;;;10125663;29;20522;-80
2024/01/15 11:31:51;;;;;;;29.33;11.83;;;;;;;;;;10115574;29;20671;-80
2024/01/15 11:36:52;;;;;;;24.80;11.57;;;;;;;;;;10125262;29;20108;-80
2024/01/15 11:41:55;;;;;;;33.27;15.83;;;;;;;;;;10127378;23;20065;-81
2024/01/15 11:47:03;;;;;;;27.33;12.37;;;;;;;;;;10087449;29;20685;-81
2024/01/15 11:52:12;;;;;;;23.70;10.30;;;;;;;;;;10086645;29;20057;-80
2024/01/15 11:57:19;;;;;;;25.00;11.77;;;;;;;;;;10082681;29;20058;-79
2024/01/15 12:02:21;;;;;;;23.57;10.40;;;;;;;;;;10084315;29;20084;-81
2024/01/15 12:07:22;;;;;;;28.07;11.70;;;;;;;;;;10120371;29;20089;-82
2024/01/15 12:12:27;;;;;;;25.00;12.20;;;;;;;;;;10118975;29;20032;-80
2024/01/15 12:17:28;;;;;;;27.23;12.17;;;;;;;;;;10123823;29;20371;-79
2024/01/15 12:22:29;;;;;;;22.87;10.83;;;;;;;;;;10124110;29;20036;-81
2024/01/15 12:27:30;;;;;;;24.90;11.63;;;;;;;;;;10124164;29;20080;-79
2024/01/15 12:32:31;;;;;;;26.77;13.37;;;;;;;;;;10123017;29;20040;-80
2024/01/15 12:37:32;;;;;;;27.90;13.00;;;;;;;;;;10122370;29;20048;-80
2024/01/15 12:42:41;;;;;;;30.70;12.03;;;;;;;;;;10122643;29;20060;-79
2024/01/15 12:47:51;;;;;;;22.50;10.53;;;;;;;;;;10115333;29;20048;-82
2024/01/15 12:52:52;;;;;;;24.20;12.17;;;;;;;;;;10113774;29;20088;-81
2024/01/15 12:57:54;;;;;;;29.33;13.67;;;;;;;;;;10121085;29;20481;-83
2024/01/15 13:02:57;;;;;;;25.97;11.67;;;;;;;;;;10114087;29;20644;-79
2024/01/15 13:07:59;;;;;;;24.40;12.43;;;;;;;;;;10100460;29;20041;-82
2024/01/15 13:13:00;;;;;;;24.07;11.00;;;;;;;;;;10108025;29;20548;-82
2024/01/15 13:18:01;;;;;;;26.63;10.57;;;;;;;;;;10105823;29;20124;-82
2024/01/15 13:23:03;;;;;;;24.63;12.30;;;;;;;;;;10112271;29;20571;-78
2024/01/15 13:28:08;;;;;;;28.37;12.40;;;;;;;;;;10114309;29;20062;-77
2024/01/15 13:33:09;;;;;;;30.40;14.03;;;;;;;;;;10114012;29;20029;-76
2024/01/15 13:38:11;;;;;;;31.60;14.57;;;;;;;;;;10106150;29;20057;-78
2024/01/15 13:43:14;;;;;;;30.93;13.13;;;;;;;;;;10116400;29;20092;-83
2024/01/15 13:48:15;;;;;;;26.47;11.87;;;;;;;;;;10119568;29;20036;-79
2024/01/15 13:53:16;;;;;;;34.03;15.93;;;;;;;;;;10119131;29;20055;-78
2024/01/15 13:58:25;;;;;;;35.70;16.17;;;;;;;;;;10119815;29;20093;-79
2024/01/15 14:03:26;;;;;;;34.37;14.43;;;;;;;;;;10119767;29;20048;-78
2024/01/15 14:08:27;;;;;;;30.70;14.60;;;;;;;;;;10105536;29;20446;-78
2024/01/15 14:13:28;;;;;;;29.27;13.47;;;;;;;;;;10105937;29;20044;-78
2024/01/15 14:18:29;;;;;;;32.33;14.50;;;;;;;;;;10118168;29;20069;-78
2024/01/15 14:23:30;;;;;;;29.70;13.03;;;;;;;;;;10130591;29;20044;-79
2024/01/15 14:28:31;;;;;;;28.83;13.33;;;;;;;;;;10086725;29;20697;-82
2024/01/15 14:33:32;;;;;;;25.17;11.90;;;;;;;;;;10119192;29;20040;-81
2024/01/15 14:38:34;;;;;;;22.20;11.83;;;;;;;;;;10121564;29;20115;-79
2024/01/15 14:43:35;;;;;;;23.20;10.73;;;;;;;;;;10118737;29;20056;-78
2024/01/15 14:48:36;;;;;;;25.57;11.47;;;;;;;;;;10118373;29;20064;-77
2024/01/15 14:53:37;;;;;;;23.10;10.53;;;;;;;;;;10124782;29;20071;-81
2024/01/15 14:58:38;;;;;;;26.40;11.27;;;;;;;;;;10122848;29;20037;-78
2024/01/15 15:03:39;;;;;;;25.93;11.10;;;;;;;;;;10109779;29;20041;-78
2024/01/15 15:08:40;;;;;;;28.27;12.67;;;;;;;;;;10116348;29;20044;-79
2024/01/15 15:13:41;;;;;;;29.13;11.97;;;;;;;;;;10140721;29;20052;-78
2024/01/15 15:18:43;;;;;;;26.27;11.63;;;;;;;;;;10119722;29;20044;-78
2024/01/15 15:23:44;;;;;;;28.27;12.07;;;;;;;;;;10119618;23;20485;-80
2024/01/15 15:28:45;;;;;;;28.33;12.40;;;;;;;;;;10078139;29;20093;-78
2024/01/15 15:33:46;;;;;;;27.50;12.53;;;;;;;;;;10080680;29;20081;-81
2024/01/15 15:38:47;;;;;;;26.40;12.23;;;;;;;;;;10087125;29;20108;-81
2024/01/15 15:43:48;;;;;;;24.27;11.60;;;;;;;;;;10121694;29;20040;-78
2024/01/15 15:48:55;;;;;;;29.83;11.80;;;;;;;;;;10119686;29;20050;-79
2024/01/15 15:53:56;;;;;;;23.33;10.80;;;;;;;;;;10118369;29;20033;-80
2024/01/15 15:58:57;;;;;;;25.87;12.70;;;;;;;;;;10124111;29;20037;-80
2024/01/15 16:03:59;;;;;;;31.13;13.37;;;;;;;;;;10120621;29;20095;-79
2024/01/15 16:09:00;;;;;;;35.80;14.83;;;;;;;;;;10110856;29;20040;-77
2024/01/15 16:14:01;;;;;;;35.20;14.07;;;;;;;;;;10121063;29;20484;-81
2024/01/15 16:19:02;;;;;;;39.57;14.03;;;;;;;;;;10120702;29;20040;-79
2024/01/15 16:24:03;;;;;;;34.53;11.83;;;;;;;;;;10112915;29;20068;-78
2024/01/15 16:29:05;;;;;;;23.93;10.40;;;;;;;;;;10107855;29;20089;-77
2024/01/15 16:34:06;;;;;;;29.53;11.57;;;;;;;;;;10101655;29;20085;-79
2024/01/15 16:39:07;;;;;;;31.63;13.10;;;;;;;;;;10109033;29;20051;-79
2024/01/15 16:44:08;;;;;;;28.93;12.50;;;;;;;;;;10113282;29;20033;-81
2024/01/15 16:49:15;;;;;;;25.63;10.33;;;;;;;;;;10105299;29;20052;-81
2024/01/15 16:54:17;;;;;;;24.20;11.20;;;;;;;;;;10118624;29;20489;-78
2024/01/15 16:59:18;;;;;;;25.80;11.07;;;;;;;;;;10116699;29;20033;-78
2024/01/15 17:04:19;;;;;;;26.43;11.10;;;;;;;;;;10121905;29;20048;-80
2024/01/15 17:09:20;;;;;;;22.77;10.70;;;;;;;;;;10121296;29;20036;-81
2024/01/15 17:14:21;;;;;;;35.50;14.20;;;;;;;;;;10116281;29;20386;-80
2024/01/15 17:19:22;;;;;;;42.47;16.97;;;;;;;;;;10118363;29;20051;-81
2024/01/15 17:24:23;;;;;;;27.90;12.37;;;;;;;;;;10101952;29;20061;-81
2024/01/15 17:29:24;;;;;;;23.13;10.97;;;;;;;;;;10111830;29;20048;-78
2024/01/15 17:34:25;;;;;;;22.73;9.90;;;;;;;;;;10119783;29;20396;-79
2024/01/15 17:39:26;;;;;;;26.43;10.03;;;;;;;;;;10119697;29;20046;-79
2024/01/15 17:44:27;;;;;;;23.77;10.30;;;;;;;;;;10120667;29;20801;-78
2024/01/15 17:49:30;;;;;;;25.03;11.27;;;;;;;;;;10118821;29;20131;-78
2024/01/15 17:54:31;;;;;;;24.70;11.07;;;;;;;;;;10121328;29;20450;-79
2024/01/15 17:59:32;;;;;;;25.23;10.83;;;;;;;;;;10114138;29;20610;-77
2024/01/15 18:04:33;;;;;;;22.40;10.47;;;;;;;;;;10115932;29;20093;-77
2024/01/15 18:09:34;;;;;;;25.30;10.47;;;;;;;;;;10117002;29;20040;-81
2024/01/15 18:14:35;;;;;;;27.90;12.10;;;;;;;;;;10125179;29;20115;-78
2024/01/15 18:19:43;;;;;;;23.43;11.07;;;;;;;;;;10115738;29;20044;-79
2024/01/15 18:24:45;;;;;;;30.00;13.30;;;;;;;;;;10118142;29;20495;-79
2024/01/15 18:29:46;;;;;;;38.63;17.77;;;;;;;;;;10127299;29;20032;-77
2024/01/15 18:34:47;;;;;;;33.60;16.17;;;;;;;;;;10116317;29;20032;-79
2024/01/15 18:39:48;;;;;;;26.73;12.43;;;;;;;;;;10124070;29;20486;-80
2024/01/15 18:44:49;;;;;;;29.07;14.20;;;;;;;;;;10123655;29;20076;-78
2024/01/15 18:49:51;;;;;;;28.87;12.73;;;;;;;;;;10124880;29;20036;-79
2024/01/15 18:54:52;;;;;;;27.07;11.53;;;;;;;;;;10127072;29;20396;-77
2024/01/15 18:59:53;;;;;;;27.33;11.80;;;;;;;;;;10125817;29;20091;-78
2024/01/15 19:04:54;;;;;;;24.40;10.83;;;;;;;;;;10126561;29;20139;-81
2024/01/15 19:09:55;;;;;;;34.03;14.50;;;;;;;;;;10125794;29;20040;-79
2024/01/15 19:14:56;;;;;;;38.27;15.67;;;;;;;;;;10123370;29;20067;-80
2024/01/15 19:19:57;;;;;;;33.20;15.27;;;;;;;;;;10125618;29;20036;-80
2024/01/15 19:25:05;;;;;;;45.33;18.63;;;;;;;;;;10124929;29;20124;-80
2024/01/15 19:30:08;;;;;;;38.50;15.60;;;;;;;;;;10120237;29;20780;-81
2024/01/15 19:35:12;;;;;;;37.27;15.73;;;;;;;;;;10120694;29;20032;-79
2024/01/15 19:40:14;;;;;;;34.00;15.13;;;;;;;;;;10098775;29;20116;-78
2024/01/15 19:45:15;;;;;;;48.30;18.57;;;;;;;;;;10114056;29;20051;-78
2024/01/15 19:50:16;;;;;;;35.97;14.43;;;;;;;;;;10121450;29;20424;-80
2024/01/15 19:55:17;;;;;;;39.77;16.23;;;;;;;;;;10115312;29;20108;-80
2024/01/15 20:00:18;;;;;;;34.40;14.17;;;;;;;;;;10118248;29;20040;-79
2024/01/15 20:05:19;;;;;;;31.10;14.37;;;;;;;;;;10113446;29;20608;-78
2024/01/15 20:10:20;;;;;;;34.17;14.97;;;;;;;;;;10107276;29;20037;-78
2024/01/15 20:15:21;;;;;;;29.37;13.60;;;;;;;;;;10114155;29;20024;-78
2024/01/15 20:20:23;;;;;;;33.83;14.97;;;;;;;;;;10113753;29;20059;-79
2024/01/15 20:25:24;;;;;;;33.20;14.23;;;;;;;;;;10114632;29;20048;-79
2024/01/15 20:30:25;;;;;;;31.20;13.97;;;;;;;;;;10107301;29;20056;-80
2024/01/15 20:35:27;;;;;;;40.03;15.47;;;;;;;;;;10106282;29;20141;-80
2024/01/15 20:40:28;;;;;;;40.87;17.87;;;;;;;;;;10110381;29;20075;-78
2024/01/15 20:45:29;;;;;;;45.13;18.17;;;;;;;;;;10115179;29;20043;-79
2024/01/15 20:50:30;;;;;;;39.53;17.27;;;;;;;;;;10118439;29;20047;-80
2024/01/15 20:55:38;;;;;;;46.90;18.67;;;;;;;;;;10113417;29;20033;-78
2024/01/15 21:00:39;;;;;;;38.80;16.83;;;;;;;;;;10114693;29;20711;-80
2024/01/15 21:05:40;;;;;;;61.37;24.50;;;;;;;;;;10114278;29;20725;-80
2024/01/15 21:10:41;;;;;;;76.10;26.47;;;;;;;;;;10112538;29;20088;-79
2024/01/15 21:15:43;;;;;;;50.13;20.77;;;;;;;;;;10117198;29;20036;-81
2024/01/15 21:20:44;;;;;;;49.43;20.20;;;;;;;;;;10116389;29;20038;-79
2024/01/15 21:25:45;;;;;;;50.53;21.33;;;;;;;;;;10119908;29;20095;-81
2024/01/15 21:30:46;;;;;;;55.63;21.83;;;;;;;;;;10118810;29;20028;-79
2024/01/15 21:35:47;;;;;;;50.33;18.37;;;;;;;;;;10115274;29;20414;-79
2024/01/15 21:40:48;;;;;;;54.83;22.73;;;;;;;;;;10114183;29;20686;-78
2024/01/15 21:45:50;;;;;;;52.93;21.07;;;;;;;;;;10121056;29;20052;-79
2024/01/15 21:50:51;;;;;;;55.83;22.53;;;;;;;;;;10127872;29;20043;-79
2024/01/15 21:55:52;;;;;;;51.87;21.83;;;;;;;;;;10128240;29;20032;-80
2024/01/15 22:00:53;;;;;;;69.20;25.27;;;;;;;;;;10126637;29;20036;-77
2024/01/15 22:05:54;;;;;;;66.17;25.33;;;;;;;;;;10117474;29;20422;-78
2024/01/15 22:10:55;;;;;;;42.60;19.87;;;;;;;;;;10113428;29;20043;-79
2024/01/15 22:15:56;;;;;;;41.07;17.00;;;;;;;;;;10117140;29;20807;-78
2024/01/15 22:20:57;;;;;;;41.13;15.50;;;;;;;;;;10127517;29;20052;-78
2024/01/15 22:25:58;;;;;;;37.13;15.93;;;;;;;;;;10119708;29;20060;-78
2024/01/15 22:30:59;;;;;;;35.43;15.80;;;;;;;;;;10121978;29;20032;-78
2024/01/15 22:36:00;;;;;;;36.20;15.20;;;;;;;;;;10103276;29;20055;-78
2024/01/15 22:41:01;;;;;;;31.57;13.73;;;;;;;;;;10125255;29;20388;-79
2024/01/15 22:46:09;;;;;;;27.03;12.73;;;;;;;;;;10126032;29;20132;-81
2024/01/15 22:51:10;;;;;;;27.13;12.83;;;;;;;;;;10126186;29;20691;-81
2024/01/15 22:56:11;;;;;;;24.27;12.17;;;;;;;;;;10123828;29;20035;-77
2024/01/15 23:01:13;;;;;;;28.50;12.83;;;;;;;;;;10122353;29;20040;-80
2024/01/15 23:06:20;;;;;;;30.83;14.03;;;;;;;;;;10112885;29;20048;-77
2024/01/15 23:11:21;;;;;;;31.07;13.33;;;;;;;;;;10116498;29;20130;-78
2024/01/15 23:16:22;;;;;;;28.70;13.13;;;;;;;;;;10119025;29;20112;-79
2024/01/15 23:21:23;;;;;;;35.80;14.20;;;;;;;;;;10124680;29;20044;-77
2024/01/15 23:26:24;;;;;;;31.10;12.70;;;;;;;;;;10123614;29;20069;-77
2024/01/15 23:31:25;;;;;;;26.93;13.83;;;;;;;;;;10116229;29;20047;-78
2024/01/15 23:36:26;;;;;;;33.73;13.40;;;;;;;;;;10125816;29;20127;-77
2024/01/15 23:41:27;;;;;;;28.73;12.60;;;;;;;;;;10121078;29;20036;-79
2024/01/15 23:46:28;;;;;;;31.33;12.87;;;;;;;;;;10124058;29;20122;-79
2024/01/15 23:51:29;;;;;;;27.57;12.37;;;;;;;;;;10119853;29;20036;-79
2024/01/15 23:56:30;;;;;;;25.77;11.87;;;;;;;;;;10123719;29;20366;-78
